createdAt,value
2022-07-28T00:00:16.014Z,2.10
2022-07-28T00:02:43.207Z,2.00
2022-07-28T00:05:11.387Z,2.28
2022-07-28T00:07:38.759Z,2.08
2022-07-28T00:10:07.267Z,1.90
2022-07-28T00:12:34.531Z,2.05
2022-07-28T00:15:02.471Z,2.70
2022-07-28T00:17:29.847Z,2.35
2022-07-28T00:19:57.104Z,2.30
2022-07-28T00:22:25.510Z,2.15
2022-07-28T00:24:52.683Z,2.10
2022-07-28T00:27:19.978Z,2.30
2022-07-28T00:29:50.387Z,2.28
2022-07-28T00:32:20.904Z,2.17
2022-07-28T00:34:48.371Z,2.33
2022-07-28T00:37:15.679Z,2.22
2022-07-28T00:39:44.042Z,2.05
2022-07-28T00:42:12.530Z,2.40
2022-07-28T00:44:42.185Z,2.30
2022-07-28T00:47:09.583Z,2.28
2022-07-28T00:49:38.203Z,1.95
2022-07-28T00:52:08.424Z,2.20
2022-07-28T00:54:36.879Z,2.30
2022-07-28T00:57:04.365Z,1.98
2022-07-28T00:59:33.732Z,2.13
2022-07-28T01:02:02.568Z,2.40
2022-07-28T01:04:30.435Z,2.17
2022-07-28T01:07:11.899Z,2.20
2022-07-28T01:09:59.949Z,2.22
2022-07-28T01:12:33.073Z,2.08
2022-07-28T01:15:09.574Z,2.03
2022-07-28T01:17:50.502Z,2.00
2022-07-28T01:20:31.004Z,2.15
2022-07-28T01:23:35.674Z,2.00
2022-07-28T01:26:43.010Z,2.00
2022-07-28T01:29:50.922Z,2.40
2022-07-28T01:32:23.475Z,2.05
2022-07-28T01:35:10.863Z,2.20
2022-07-28T01:37:47.348Z,2.25
2022-07-28T01:40:20.509Z,2.40
2022-07-28T01:42:52.366Z,2.67
2022-07-28T01:45:21.482Z,2.33
2022-07-28T01:47:50.307Z,2.60
2022-07-28T01:50:23.834Z,2.45
2022-07-28T01:55:22.935Z,1.90
2022-07-28T01:57:53.679Z,2.42
2022-07-28T02:00:21.510Z,2.00
2022-07-28T02:02:50.405Z,2.80
2022-07-28T02:05:21.866Z,2.40
2022-07-28T02:07:51.259Z,2.47
2022-07-28T02:10:20.409Z,2.53
2022-07-28T02:12:50.103Z,2.47
2022-07-28T02:15:18.210Z,2.53
2022-07-28T02:17:47.429Z,2.60
2022-07-28T02:20:16.733Z,2.80
2022-07-28T02:22:45.142Z,2.63
2022-07-28T02:25:19.961Z,2.28
2022-07-28T02:28:00.511Z,2.60
2022-07-28T02:30:44.401Z,2.78
2022-07-28T02:33:57.932Z,2.58
2022-07-28T02:36:27.499Z,2.80
2022-07-28T02:39:02.057Z,2.63
2022-07-28T02:41:32.427Z,2.42
2022-07-28T02:44:04.301Z,2.50
2022-07-28T02:46:43.279Z,2.60
2022-07-28T02:49:30.478Z,2.78
2022-07-28T02:52:00.271Z,2.65
2022-07-28T02:54:30.634Z,2.60
2022-07-28T02:57:00.494Z,3.10
2022-07-28T02:59:29.331Z,2.70
2022-07-28T03:01:57.538Z,2.80
2022-07-28T03:04:44.031Z,3.30
2022-07-28T03:07:11.680Z,3.13
2022-07-28T03:09:49.088Z,3.30
2022-07-28T03:12:16.310Z,2.75
2022-07-28T03:14:43.652Z,3.20
2022-07-28T03:17:10.926Z,3.20
2022-07-28T03:19:38.372Z,3.13
2022-07-28T03:22:06.024Z,3.35
2022-07-28T03:24:43.388Z,2.67
2022-07-28T03:27:33.251Z,3.15
2022-07-28T03:30:15.680Z,3.20
2022-07-28T03:32:51.946Z,3.17
2022-07-28T03:35:19.637Z,2.95
2022-07-28T03:38:14.169Z,2.90
2022-07-28T03:40:46.148Z,3.03
2022-07-28T03:43:17.329Z,3.00
2022-07-28T03:45:46.615Z,3.00
2022-07-28T03:48:15.098Z,2.90
2022-07-28T03:50:42.679Z,3.05
2022-07-28T03:53:21.712Z,3.22
2022-07-28T03:55:52.609Z,2.97
2022-07-28T03:58:26.232Z,2.90
2022-07-28T04:00:57.493Z,2.78
2022-07-28T04:03:42.493Z,2.80
2022-07-28T04:06:15.757Z,2.75
2022-07-28T04:08:44.980Z,2.60
2022-07-28T04:11:12.713Z,2.95
2022-07-28T04:13:40.018Z,2.70
2022-07-28T04:16:07.771Z,2.75
2022-07-28T04:18:35.665Z,2.95
2022-07-28T04:21:03.189Z,2.80
2022-07-28T04:23:31.048Z,3.00
2022-07-28T04:25:58.215Z,2.63
2022-07-28T04:28:25.481Z,2.55
2022-07-28T04:30:52.795Z,2.17
2022-07-28T04:33:20.470Z,2.70
2022-07-28T04:35:48.052Z,2.20
2022-07-28T04:38:17.916Z,2.88
2022-07-28T04:40:45.900Z,2.38
2022-07-28T04:43:13.796Z,2.75
2022-07-28T04:45:53.572Z,2.28
2022-07-28T04:48:23.126Z,2.40
2022-07-28T04:50:52.879Z,2.33
2022-07-28T04:53:21.555Z,2.45
2022-07-28T04:55:49.531Z,2.58
2022-07-28T04:58:19.443Z,2.33
2022-07-28T05:00:49.903Z,2.58
2022-07-28T05:03:18.850Z,2.92
2022-07-28T05:05:49.187Z,2.20
2022-07-28T05:08:26.198Z,2.72
2022-07-28T05:10:55.647Z,2.80
2022-07-28T05:13:22.787Z,2.50
2022-07-28T05:15:49.988Z,2.42
2022-07-28T05:18:17.512Z,2.65
2022-07-28T05:20:44.551Z,2.50
2022-07-28T05:23:12.881Z,2.83
2022-07-28T05:25:40.149Z,2.67
2022-07-28T05:28:07.349Z,2.13
2022-07-28T05:30:37.009Z,2.38
2022-07-28T05:33:04.253Z,2.42
2022-07-28T05:35:31.483Z,2.20
2022-07-28T05:37:58.866Z,2.50
2022-07-28T05:40:27.324Z,2.00
2022-07-28T05:42:54.700Z,1.98
2022-07-28T05:45:22.153Z,2.25
2022-07-28T05:47:52.757Z,2.13
2022-07-28T05:50:22.572Z,1.85
2022-07-28T05:52:51.313Z,2.08
2022-07-28T05:55:19.194Z,1.80
2022-07-28T05:57:47.000Z,1.60
2022-07-28T06:00:18.551Z,2.75
2022-07-28T06:02:51.482Z,1.77
2022-07-28T06:05:21.652Z,1.50
2022-07-28T06:07:50.955Z,2.00
2022-07-28T06:10:22.047Z,1.60
2022-07-28T06:12:53.941Z,1.70
2022-07-28T06:17:55.891Z,1.23
2022-07-28T06:20:24.757Z,1.50
2022-07-28T06:22:55.172Z,1.30
2022-07-28T06:25:28.644Z,1.02
2022-07-28T06:27:59.035Z,1.60
2022-07-28T06:30:27.664Z,1.27
2022-07-28T06:32:55.901Z,1.23
2022-07-28T06:35:23.350Z,1.58
2022-07-28T06:37:52.405Z,1.33
2022-07-28T06:40:22.184Z,1.33
2022-07-28T06:42:50.180Z,1.20
2022-07-28T06:45:21.304Z,1.20
2022-07-28T06:47:53.747Z,1.40
2022-07-28T06:50:24.790Z,1.20
2022-07-28T06:52:57.032Z,1.15
2022-07-28T06:55:34.377Z,1.58
2022-07-28T06:58:02.514Z,1.50
2022-07-28T07:00:29.960Z,1.15
2022-07-28T07:02:57.317Z,1.13
2022-07-28T07:05:26.228Z,1.10
2022-07-28T07:07:53.277Z,1.20
2022-07-28T07:10:20.698Z,1.30
2022-07-28T07:12:47.903Z,1.30
2022-07-28T07:15:15.210Z,1.08
2022-07-28T07:17:42.603Z,1.20
2022-07-28T07:20:13.478Z,1.23
2022-07-28T07:22:46.388Z,1.13
2022-07-28T07:25:19.207Z,0.93
2022-07-28T07:27:47.385Z,1.25
2022-07-28T07:30:15.912Z,1.23
2022-07-28T07:32:43.936Z,1.45
2022-07-28T07:35:12.634Z,1.13
2022-07-28T07:37:40.482Z,1.30
2022-07-28T07:40:08.956Z,1.30
2022-07-28T07:42:36.746Z,1.13
2022-07-28T07:45:04.828Z,1.20
2022-07-28T07:47:32.158Z,1.05
2022-07-28T07:50:01.824Z,1.35
2022-07-28T07:54:58.422Z,1.08
2022-07-28T07:57:25.682Z,1.25
2022-07-28T07:59:52.890Z,1.38
2022-07-28T08:02:20.036Z,1.30
2022-07-28T08:04:47.773Z,1.25
2022-07-28T08:07:15.562Z,1.02
2022-07-28T08:09:43.354Z,1.40
2022-07-28T08:12:10.476Z,1.35
2022-07-28T08:14:37.725Z,1.20
2022-07-28T08:17:05.107Z,1.23
2022-07-28T08:19:32.223Z,1.33
2022-07-28T08:21:59.394Z,1.40
2022-07-28T08:24:32.863Z,1.08
2022-07-28T08:27:03.028Z,1.55
2022-07-28T08:29:30.633Z,1.30
2022-07-28T08:31:57.981Z,1.33
2022-07-28T08:34:31.512Z,1.40
2022-07-28T08:37:03.747Z,1.20
2022-07-28T08:39:33.192Z,1.13
2022-07-28T08:42:19.091Z,1.27
2022-07-28T08:44:59.297Z,1.00
2022-07-28T08:47:45.880Z,1.30
2022-07-28T08:50:24.706Z,1.08
2022-07-28T08:52:54.415Z,1.20
2022-07-28T08:55:31.377Z,1.15
2022-07-28T08:58:00.554Z,1.00
2022-07-28T09:00:28.239Z,1.10
2022-07-28T09:02:56.122Z,0.90
2022-07-28T09:05:25.035Z,1.10
2022-07-28T09:07:55.468Z,1.00
2022-07-28T09:10:23.834Z,0.90
2022-07-28T09:12:51.523Z,1.20
2022-07-28T09:15:18.837Z,1.10
2022-07-28T09:17:46.101Z,1.08
2022-07-28T09:20:14.275Z,1.23
2022-07-28T09:23:01.348Z,1.17
2022-07-28T09:25:29.747Z,1.20
2022-07-28T09:28:07.682Z,0.98
2022-07-28T09:30:38.463Z,1.00
2022-07-28T09:33:40.958Z,1.10
2022-07-28T09:36:16.335Z,1.10
2022-07-28T09:38:43.928Z,1.25
2022-07-28T09:41:11.933Z,1.00
2022-07-28T09:43:45.048Z,1.20
2022-07-28T09:46:19.620Z,1.30
2022-07-28T09:48:51.436Z,1.20
2022-07-28T09:51:25.542Z,1.20
2022-07-28T09:53:53.973Z,1.10
2022-07-28T09:56:23.544Z,1.10
2022-07-28T09:58:57.438Z,1.35
2022-07-28T10:01:29.230Z,1.25
2022-07-28T10:04:03.971Z,0.90
2022-07-28T10:06:33.865Z,1.30
2022-07-28T10:09:07.451Z,1.35
2022-07-28T10:11:41.080Z,1.10
2022-07-28T10:14:08.908Z,1.42
2022-07-28T10:16:43.679Z,1.02
2022-07-28T10:19:10.944Z,0.90
2022-07-28T10:21:46.842Z,1.20
2022-07-28T10:24:22.235Z,1.38
2022-07-28T10:26:52.601Z,1.10
2022-07-28T10:29:22.104Z,1.08
2022-07-28T10:31:55.782Z,1.02
2022-07-28T10:34:35.149Z,1.15
2022-07-28T10:37:04.512Z,1.35
2022-07-28T10:39:46.441Z,1.20
2022-07-28T10:42:14.080Z,1.38
2022-07-28T10:44:43.584Z,1.30
2022-07-28T10:47:18.372Z,1.38
2022-07-28T10:49:50.606Z,1.20
2022-07-28T10:52:45.663Z,0.98
2022-07-28T10:55:20.491Z,0.95
2022-07-28T10:58:38.151Z,1.02
2022-07-28T11:01:06.568Z,1.30
2022-07-28T11:03:47.619Z,1.38
2022-07-28T11:06:36.784Z,1.23
2022-07-28T11:09:16.463Z,1.00
2022-07-28T11:12:00.057Z,1.15
2022-07-28T11:14:39.020Z,1.20
2022-07-28T11:17:10.826Z,1.10
2022-07-28T11:20:07.051Z,0.90
2022-07-28T11:22:33.668Z,1.15
2022-07-28T11:25:18.869Z,1.00
2022-07-28T11:27:51.903Z,1.13
2022-07-28T11:30:21.294Z,0.90
2022-07-28T11:32:51.688Z,0.90
2022-07-28T11:35:21.417Z,0.90
2022-07-28T11:38:03.823Z,1.00
2022-07-28T11:40:32.912Z,0.80
2022-07-28T11:43:27.243Z,1.20
2022-07-28T11:46:11.549Z,0.80
2022-07-28T11:48:42.537Z,1.08
2022-07-28T11:51:11.728Z,1.10
2022-07-28T11:53:41.566Z,0.93
2022-07-28T11:56:10.440Z,0.90
2022-07-28T11:58:38.782Z,0.82
2022-07-28T12:01:20.835Z,0.98
2022-07-28T12:03:55.144Z,1.00
2022-07-28T12:06:35.701Z,1.13
2022-07-28T12:09:09.435Z,0.93
2022-07-28T12:11:41.289Z,0.90
2022-07-28T12:14:14.445Z,0.90
2022-07-28T12:16:45.647Z,1.05
2022-07-28T12:19:17.255Z,0.90
2022-07-28T12:21:51.896Z,1.10
2022-07-28T12:24:45.804Z,1.15
2022-07-28T12:27:15.367Z,1.10
2022-07-28T12:29:47.905Z,1.02
2022-07-28T12:32:17.617Z,1.30
2022-07-28T12:34:45.946Z,1.00
2022-07-28T12:37:14.136Z,0.90
2022-07-28T12:39:43.468Z,1.20
2022-07-28T12:42:12.778Z,1.02
2022-07-28T12:44:42.911Z,1.00
2022-07-28T12:47:13.124Z,1.10
2022-07-28T12:49:43.437Z,0.93
2022-07-28T12:52:24.930Z,0.90
2022-07-28T12:54:55.709Z,1.10
2022-07-28T12:57:51.010Z,1.00
2022-07-28T13:00:28.015Z,1.10
2022-07-28T13:02:58.952Z,1.10
2022-07-28T13:05:56.064Z,1.00
2022-07-28T13:08:25.545Z,0.98
2022-07-28T13:10:57.491Z,1.17
2022-07-28T13:16:19.515Z,1.05
2022-07-28T13:18:54.313Z,1.10
2022-07-28T13:21:58.681Z,1.20
2022-07-28T13:24:29.957Z,0.80
2022-07-28T13:26:59.271Z,0.85
2022-07-28T13:29:26.780Z,1.10
2022-07-28T13:31:56.784Z,1.10
2022-07-28T13:34:24.092Z,1.20
2022-07-28T13:36:52.524Z,1.00
2022-07-28T13:39:19.956Z,1.27
2022-07-28T13:41:57.048Z,1.38
2022-07-28T13:44:29.134Z,1.10
2022-07-28T13:46:59.466Z,1.10
2022-07-28T13:49:33.866Z,1.08
2022-07-28T13:52:02.495Z,1.17
2022-07-28T13:54:29.747Z,1.20
2022-07-28T13:56:57.011Z,1.05
2022-07-28T13:59:26.310Z,1.10
2022-07-28T14:01:56.097Z,1.02
2022-07-28T14:04:23.940Z,1.00
2022-07-28T14:06:51.435Z,1.05
2022-07-28T14:09:21.296Z,1.15
2022-07-28T14:11:49.263Z,1.00
2022-07-28T14:14:20.591Z,1.10
2022-07-28T14:16:54.352Z,1.05
2022-07-28T14:19:39.188Z,1.00
2022-07-28T14:22:13.207Z,1.00
2022-07-28T14:24:42.524Z,1.17
2022-07-28T14:27:11.116Z,0.93
2022-07-28T14:29:39.542Z,1.25
2022-07-28T14:32:07.586Z,1.33
2022-07-28T14:34:35.608Z,1.20
2022-07-28T14:37:08.524Z,1.05
2022-07-28T14:39:38.300Z,1.10
2022-07-28T14:42:06.891Z,1.10
2022-07-28T14:44:34.101Z,1.20
2022-07-28T14:47:01.409Z,1.65
2022-07-28T14:49:28.975Z,1.23
2022-07-28T14:51:57.528Z,1.08
2022-07-28T14:54:25.136Z,1.38
2022-07-28T14:56:52.416Z,1.00
2022-07-28T14:59:19.593Z,1.13
2022-07-28T15:01:47.617Z,1.23
2022-07-28T15:04:17.190Z,1.40
2022-07-28T15:06:44.769Z,1.13
2022-07-28T15:09:12.390Z,1.08
2022-07-28T15:11:41.291Z,1.23
2022-07-28T15:14:08.831Z,1.10
2022-07-28T15:16:36.203Z,1.35
2022-07-28T15:19:03.554Z,1.27
2022-07-28T15:21:36.010Z,1.15
2022-07-28T15:24:04.771Z,1.20
2022-07-28T15:26:32.037Z,1.02
2022-07-28T15:28:59.472Z,1.40
2022-07-28T15:31:28.396Z,1.35
2022-07-28T15:33:58.406Z,1.00
2022-07-28T15:36:26.136Z,1.35
2022-07-28T15:38:54.267Z,1.00
2022-07-28T15:41:21.515Z,1.40
2022-07-28T15:43:48.659Z,1.30
2022-07-28T15:46:16.103Z,1.25
2022-07-28T15:48:44.740Z,1.13
2022-07-28T15:51:12.275Z,1.10
2022-07-28T15:53:41.188Z,1.17
2022-07-28T15:56:09.009Z,1.13
2022-07-28T15:58:36.677Z,1.20
2022-07-28T16:01:04.331Z,1.00
2022-07-28T16:03:31.487Z,1.20
2022-07-28T16:05:59.123Z,1.20
2022-07-28T16:08:26.805Z,0.90
2022-07-28T16:10:55.034Z,1.27
2022-07-28T16:13:36.806Z,1.20
2022-07-28T16:16:15.081Z,1.17
2022-07-28T16:18:44.207Z,1.30
2022-07-28T16:21:11.602Z,1.25
2022-07-28T16:23:38.985Z,1.30
2022-07-28T16:26:08.172Z,1.10
2022-07-28T16:28:36.316Z,1.10
2022-07-28T16:31:03.899Z,1.23
2022-07-28T16:33:33.276Z,1.30
2022-07-28T16:36:02.285Z,1.00
2022-07-28T16:38:30.219Z,1.27
2022-07-28T16:40:57.415Z,1.30
2022-07-28T16:43:24.755Z,1.20
2022-07-28T16:45:52.391Z,1.50
2022-07-28T16:48:20.907Z,1.40
2022-07-28T16:50:48.283Z,1.40
2022-07-28T16:53:16.451Z,1.13
2022-07-28T16:55:44.629Z,1.30
2022-07-28T16:58:11.815Z,1.40
2022-07-28T17:00:39.255Z,1.20
2022-07-28T17:03:06.347Z,1.40
2022-07-28T17:05:33.879Z,1.10
2022-07-28T17:08:01.163Z,1.20
2022-07-28T17:10:28.399Z,1.30
2022-07-28T17:12:56.522Z,1.30
2022-07-28T17:15:23.794Z,1.30
2022-07-28T17:17:52.748Z,1.40
2022-07-28T17:20:21.202Z,1.40
2022-07-28T17:22:49.043Z,1.50
2022-07-28T17:28:05.056Z,1.33
2022-07-28T17:30:33.586Z,1.40
2022-07-28T17:33:08.483Z,1.52
2022-07-28T17:35:38.693Z,1.20
2022-07-28T17:38:09.278Z,1.17
2022-07-28T17:40:41.663Z,1.30
2022-07-28T17:43:11.926Z,1.30
2022-07-28T17:45:39.155Z,1.43
2022-07-28T17:48:06.603Z,1.33
2022-07-28T17:50:33.918Z,1.67
2022-07-28T17:53:01.876Z,1.40
2022-07-28T17:55:57.561Z,1.23
2022-07-28T17:58:29.588Z,1.50
2022-07-28T18:01:09.287Z,1.40
2022-07-28T18:03:59.521Z,1.52
2022-07-28T18:06:36.612Z,1.50
2022-07-28T18:09:08.369Z,1.40
2022-07-28T18:11:57.769Z,1.60
2022-07-28T18:14:27.822Z,1.35
2022-07-28T18:16:55.532Z,1.40
2022-07-28T18:19:22.657Z,1.40
2022-07-28T18:21:49.998Z,1.38
2022-07-28T18:24:18.425Z,1.25
2022-07-28T18:26:46.021Z,1.38
2022-07-28T18:29:14.680Z,1.50
2022-07-28T18:31:46.538Z,1.15
2022-07-28T18:34:15.328Z,1.48
2022-07-28T18:36:43.038Z,1.33
2022-07-28T18:39:10.721Z,1.45
2022-07-28T18:41:46.386Z,1.50
2022-07-28T18:44:19.048Z,1.42
2022-07-28T18:46:48.437Z,1.30
2022-07-28T18:49:16.077Z,1.52
2022-07-28T18:51:44.249Z,1.40
2022-07-28T18:54:18.701Z,1.48
2022-07-28T18:56:49.522Z,1.33
2022-07-28T18:59:17.183Z,1.30
2022-07-28T19:01:44.438Z,1.30
2022-07-28T19:04:11.843Z,1.40
2022-07-28T19:06:39.168Z,1.25
2022-07-28T19:09:06.594Z,1.30
2022-07-28T19:11:33.918Z,1.25
2022-07-28T19:14:01.767Z,1.52
2022-07-28T19:16:29.051Z,1.70
2022-07-28T19:18:56.287Z,1.88
2022-07-28T19:21:24.512Z,1.70
2022-07-28T19:23:53.014Z,1.65
2022-07-28T19:26:21.978Z,1.67
2022-07-28T19:28:49.138Z,1.48
2022-07-28T19:31:16.315Z,1.40
2022-07-28T19:33:44.118Z,1.58
2022-07-28T19:36:15.898Z,1.60
2022-07-28T19:38:44.149Z,1.80
2022-07-28T19:41:13.132Z,2.05
2022-07-28T19:43:40.573Z,1.85
2022-07-28T19:46:08.174Z,1.92
2022-07-28T19:48:35.506Z,1.77
2022-07-28T19:51:03.530Z,1.98
2022-07-28T19:53:32.039Z,2.20
2022-07-28T19:55:59.773Z,1.85
2022-07-28T19:58:27.798Z,1.77
2022-07-28T20:00:56.266Z,2.20
2022-07-28T20:04:00.995Z,1.52
2022-07-28T20:06:12.493Z,1.90
2022-07-28T20:08:40.138Z,1.83
2022-07-28T20:11:08.253Z,1.58
2022-07-28T20:13:35.578Z,1.98
2022-07-28T20:16:02.937Z,2.10
2022-07-28T20:18:30.061Z,2.05
2022-07-28T20:20:57.623Z,1.70
2022-07-28T20:23:24.852Z,1.90
2022-07-28T20:25:52.258Z,1.90
2022-07-28T20:28:19.461Z,1.90
2022-07-28T20:30:46.765Z,2.20
2022-07-28T20:33:13.944Z,1.70
2022-07-28T20:35:41.259Z,2.20
2022-07-28T20:38:08.613Z,2.25
2022-07-28T20:40:36.061Z,2.10
2022-07-28T20:43:03.431Z,2.20
2022-07-28T20:45:31.841Z,1.88
2022-07-28T20:47:59.178Z,1.90
2022-07-28T20:50:26.677Z,2.38
2022-07-28T20:52:53.944Z,1.83
2022-07-28T20:55:21.144Z,2.03
2022-07-28T20:57:53.520Z,1.83
2022-07-28T21:00:21.408Z,1.88
2022-07-28T21:02:48.946Z,1.70
2022-07-28T21:05:26.475Z,1.65
2022-07-28T21:08:05.092Z,1.77
2022-07-28T21:10:34.083Z,1.77
2022-07-28T21:13:01.628Z,1.83
2022-07-28T21:15:30.208Z,1.63
2022-07-28T21:17:57.433Z,2.10
2022-07-28T21:20:24.932Z,1.88
2022-07-28T21:22:52.273Z,1.73
2022-07-28T21:25:20.117Z,1.90
2022-07-28T21:28:05.919Z,1.60
2022-07-28T21:30:33.300Z,1.83
2022-07-28T21:33:00.545Z,1.88
2022-07-28T21:35:27.969Z,2.03
2022-07-28T21:37:55.528Z,1.80
2022-07-28T21:40:22.771Z,1.80
2022-07-28T21:42:50.144Z,2.00
2022-07-28T21:45:17.487Z,1.60
2022-07-28T21:47:44.834Z,1.98
2022-07-28T21:50:12.378Z,2.15
2022-07-28T21:52:39.862Z,1.80
2022-07-28T21:55:09.425Z,1.98
2022-07-28T21:57:37.161Z,1.58
2022-07-28T22:00:09.086Z,1.95
2022-07-28T22:05:05.067Z,1.63
2022-07-28T22:07:32.384Z,1.58
2022-07-28T22:09:59.883Z,1.85
2022-07-28T22:12:27.005Z,1.80
2022-07-28T22:14:54.459Z,1.70
2022-07-28T22:17:21.624Z,1.88
2022-07-28T22:19:48.925Z,1.88
2022-07-28T22:22:18.364Z,1.88
2022-07-28T22:24:46.385Z,1.77
2022-07-28T22:27:13.717Z,2.10
2022-07-28T22:29:45.969Z,2.20
2022-07-28T22:32:29.154Z,2.28
2022-07-28T22:35:00.227Z,1.70
2022-07-28T22:37:27.614Z,2.50
2022-07-28T22:39:55.084Z,2.30
2022-07-28T22:42:22.439Z,1.92
2022-07-28T22:44:49.624Z,1.90
2022-07-28T22:47:16.933Z,2.03
2022-07-28T22:49:44.045Z,1.95
2022-07-28T22:52:11.296Z,2.28
2022-07-28T22:54:39.770Z,2.25
2022-07-28T22:57:07.505Z,2.03
2022-07-28T22:59:38.672Z,1.73
2022-07-28T23:02:10.963Z,2.10
2022-07-28T23:04:39.037Z,2.00
2022-07-28T23:07:12.279Z,2.05
2022-07-28T23:09:41.688Z,2.10
2022-07-28T23:12:10.172Z,2.03
2022-07-28T23:14:37.458Z,1.80
2022-07-28T23:17:05.674Z,1.90
2022-07-28T23:19:32.975Z,2.10
2022-07-28T23:22:00.120Z,2.15
2022-07-28T23:24:27.492Z,2.33
2022-07-28T23:26:54.686Z,1.90
2022-07-28T23:29:22.589Z,2.30
2022-07-28T23:31:49.942Z,2.33
2022-07-28T23:34:17.701Z,1.73
2022-07-28T23:36:45.325Z,2.22
2022-07-28T23:39:12.958Z,2.17
2022-07-28T23:41:40.355Z,2.22
2022-07-28T23:44:07.665Z,2.40
2022-07-28T23:46:34.774Z,2.40
2022-07-28T23:49:02.119Z,2.25
2022-07-28T23:51:46.551Z,2.50
2022-07-28T23:54:15.314Z,2.30
2022-07-28T23:56:43.728Z,2.53
2022-07-28T23:59:14.021Z,2.40
